Terminal Aerodrome Forecast
Issued by NWS Missoula, MT

Home | Current Version | Previous Version | Text Only | Print | Product List | Glossary On
Versions: 1 2 3 4 5 6 7 8 9 10 11 12 13 14 15 16 17 18 19 20 21 22 23 24
000
FTUS45 KMSO 261122 RRA
TAFGPI
TAF
KGPI 261122Z 2611/2712 00000KT 1SM BR OVC002
      TEMPO 2612/2614 1/2SM FZFG OVC001
     FM261700 00000KT 1SM BR OVC004
     FM261900 17005KT 5SM BR SCT010
     FM270600 00000KT 2SM BR BKN004=

USA.gov is the U.S. government's official web portal to all federal, state and local government web resources and services.